sensor_id;sensor_type;location;lat;lon;timestamp;P1;durP1;ratioP1;P2;durP2;ratioP2
23990;SDS011;12205;50.600;4.608;2023-07-31T00:00:15;10.95;;;2.05;;
23990;SDS011;12205;50.600;4.608;2023-07-31T00:02:43;12.38;;;2.13;;
23990;SDS011;12205;50.600;4.608;2023-07-31T00:05:10;14.38;;;2.30;;
23990;SDS011;12205;50.600;4.608;2023-07-31T00:07:37;11.45;;;1.65;;
23990;SDS011;12205;50.600;4.608;2023-07-31T00:10:05;8.05;;;1.70;;
23990;SDS011;12205;50.600;4.608;2023-07-31T00:12:33;11.05;;;1.75;;
23990;SDS011;12205;50.600;4.608;2023-07-31T00:15:00;6.35;;;1.58;;
23990;SDS011;12205;50.600;4.608;2023-07-31T00:17:28;11.50;;;2.22;;
23990;SDS011;12205;50.600;4.608;2023-07-31T00:19:56;7.05;;;1.50;;
23990;SDS011;12205;50.600;4.608;2023-07-31T00:22:23;7.97;;;1.90;;
23990;SDS011;12205;50.600;4.608;2023-07-31T00:24:50;10.93;;;1.67;;
23990;SDS011;12205;50.600;4.608;2023-07-31T00:27:17;12.93;;;2.40;;
23990;SDS011;12205;50.600;4.608;2023-07-31T00:29:45;11.15;;;2.38;;
23990;SDS011;12205;50.600;4.608;2023-07-31T00:32:12;13.77;;;2.40;;
23990;SDS011;12205;50.600;4.608;2023-07-31T00:34:39;9.07;;;1.75;;
23990;SDS011;12205;50.600;4.608;2023-07-31T00:37:07;9.45;;;1.92;;
23990;SDS011;12205;50.600;4.608;2023-07-31T00:39:34;13.80;;;1.98;;
23990;SDS011;12205;50.600;4.608;2023-07-31T00:42:02;9.73;;;2.00;;
23990;SDS011;12205;50.600;4.608;2023-07-31T00:44:29;19.05;;;2.80;;
23990;SDS011;12205;50.600;4.608;2023-07-31T00:46:56;10.93;;;1.90;;
23990;SDS011;12205;50.600;4.608;2023-07-31T00:49:24;9.00;;;1.90;;
23990;SDS011;12205;50.600;4.608;2023-07-31T00:51:52;10.73;;;2.30;;
23990;SDS011;12205;50.600;4.608;2023-07-31T00:54:25;12.20;;;1.98;;
23990;SDS011;12205;50.600;4.608;2023-07-31T00:56:52;10.70;;;1.90;;
23990;SDS011;12205;50.600;4.608;2023-07-31T00:59:21;9.77;;;1.90;;
23990;SDS011;12205;50.600;4.608;2023-07-31T01:01:47;9.02;;;1.60;;
23990;SDS011;12205;50.600;4.608;2023-07-31T01:04:14;11.30;;;1.65;;
23990;SDS011;12205;50.600;4.608;2023-07-31T01:06:44;11.00;;;2.00;;
23990;SDS011;12205;50.600;4.608;2023-07-31T01:09:20;9.13;;;1.65;;
23990;SDS011;12205;50.600;4.608;2023-07-31T01:12:01;6.68;;;1.65;;
23990;SDS011;12205;50.600;4.608;2023-07-31T01:14:30;8.02;;;1.50;;
23990;SDS011;12205;50.600;4.608;2023-07-31T01:16:57;11.68;;;1.60;;
23990;SDS011;12205;50.600;4.608;2023-07-31T01:19:24;9.77;;;1.80;;
23990;SDS011;12205;50.600;4.608;2023-07-31T01:21:57;7.05;;;1.63;;
23990;SDS011;12205;50.600;4.608;2023-07-31T01:24:48;10.00;;;1.92;;
23990;SDS011;12205;50.600;4.608;2023-07-31T01:27:34;8.27;;;1.80;;
23990;SDS011;12205;50.600;4.608;2023-07-31T01:30:08;6.63;;;1.67;;
23990;SDS011;12205;50.600;4.608;2023-07-31T01:32:42;6.88;;;1.65;;
23990;SDS011;12205;50.600;4.608;2023-07-31T01:35:13;13.02;;;2.10;;
23990;SDS011;12205;50.600;4.608;2023-07-31T01:37:40;8.50;;;1.75;;
23990;SDS011;12205;50.600;4.608;2023-07-31T01:40:07;13.40;;;2.42;;
23990;SDS011;12205;50.600;4.608;2023-07-31T01:42:36;6.40;;;1.40;;
23990;SDS011;12205;50.600;4.608;2023-07-31T01:45:04;7.50;;;1.65;;
23990;SDS011;12205;50.600;4.608;2023-07-31T01:47:32;10.38;;;1.63;;
23990;SDS011;12205;50.600;4.608;2023-07-31T01:49:59;6.60;;;1.55;;
23990;SDS011;12205;50.600;4.608;2023-07-31T01:52:26;8.35;;;1.40;;
23990;SDS011;12205;50.600;4.608;2023-07-31T01:54:55;9.23;;;1.35;;
23990;SDS011;12205;50.600;4.608;2023-07-31T01:57:23;8.85;;;1.65;;
23990;SDS011;12205;50.600;4.608;2023-07-31T01:59:51;11.95;;;1.70;;
23990;SDS011;12205;50.600;4.608;2023-07-31T02:02:19;5.95;;;1.30;;
23990;SDS011;12205;50.600;4.608;2023-07-31T02:04:46;8.30;;;1.65;;
23990;SDS011;12205;50.600;4.608;2023-07-31T02:07:13;6.85;;;1.58;;
23990;SDS011;12205;50.600;4.608;2023-07-31T02:09:40;5.88;;;1.20;;
23990;SDS011;12205;50.600;4.608;2023-07-31T02:12:08;7.78;;;1.70;;
23990;SDS011;12205;50.600;4.608;2023-07-31T02:14:35;8.73;;;1.50;;
23990;SDS011;12205;50.600;4.608;2023-07-31T02:17:03;9.05;;;1.48;;
23990;SDS011;12205;50.600;4.608;2023-07-31T02:19:31;5.78;;;1.30;;
23990;SDS011;12205;50.600;4.608;2023-07-31T02:21:58;10.88;;;1.35;;
23990;SDS011;12205;50.600;4.608;2023-07-31T02:24:26;7.82;;;1.40;;
23990;SDS011;12205;50.600;4.608;2023-07-31T02:26:53;6.47;;;1.48;;
23990;SDS011;12205;50.600;4.608;2023-07-31T02:29:20;9.00;;;1.90;;
23990;SDS011;12205;50.600;4.608;2023-07-31T02:31:47;6.07;;;1.23;;
23990;SDS011;12205;50.600;4.608;2023-07-31T02:34:15;6.15;;;1.20;;
23990;SDS011;12205;50.600;4.608;2023-07-31T02:36:42;5.10;;;1.38;;
23990;SDS011;12205;50.600;4.608;2023-07-31T02:39:09;5.88;;;1.30;;
23990;SDS011;12205;50.600;4.608;2023-07-31T02:41:36;6.75;;;1.40;;
23990;SDS011;12205;50.600;4.608;2023-07-31T02:44:03;6.57;;;1.33;;
23990;SDS011;12205;50.600;4.608;2023-07-31T02:46:31;6.45;;;1.40;;
23990;SDS011;12205;50.600;4.608;2023-07-31T02:48:58;9.75;;;1.40;;
23990;SDS011;12205;50.600;4.608;2023-07-31T02:51:27;9.20;;;1.60;;
23990;SDS011;12205;50.600;4.608;2023-07-31T02:53:54;3.83;;;1.17;;
23990;SDS011;12205;50.600;4.608;2023-07-31T02:56:21;7.47;;;1.63;;
23990;SDS011;12205;50.600;4.608;2023-07-31T02:58:48;6.55;;;1.60;;
23990;SDS011;12205;50.600;4.608;2023-07-31T03:01:15;8.02;;;1.50;;
23990;SDS011;12205;50.600;4.608;2023-07-31T03:03:42;5.50;;;1.20;;
23990;SDS011;12205;50.600;4.608;2023-07-31T03:06:11;6.35;;;1.10;;
23990;SDS011;12205;50.600;4.608;2023-07-31T03:08:39;7.25;;;1.40;;
23990;SDS011;12205;50.600;4.608;2023-07-31T03:11:06;10.07;;;1.40;;
23990;SDS011;12205;50.600;4.608;2023-07-31T03:13:33;5.60;;;1.35;;
23990;SDS011;12205;50.600;4.608;2023-07-31T03:16:00;7.63;;;1.30;;
23990;SDS011;12205;50.600;4.608;2023-07-31T03:18:28;6.60;;;1.15;;
23990;SDS011;12205;50.600;4.608;2023-07-31T03:20:55;5.68;;;1.10;;
23990;SDS011;12205;50.600;4.608;2023-07-31T03:23:22;5.20;;;1.00;;
23990;SDS011;12205;50.600;4.608;2023-07-31T03:25:57;7.88;;;1.17;;
23990;SDS011;12205;50.600;4.608;2023-07-31T03:28:28;7.55;;;1.40;;
23990;SDS011;12205;50.600;4.608;2023-07-31T03:30:56;11.55;;;1.60;;
23990;SDS011;12205;50.600;4.608;2023-07-31T03:33:23;6.85;;;1.30;;
23990;SDS011;12205;50.600;4.608;2023-07-31T03:35:50;8.93;;;1.30;;
23990;SDS011;12205;50.600;4.608;2023-07-31T03:38:17;4.75;;;1.17;;
23990;SDS011;12205;50.600;4.608;2023-07-31T03:40:44;5.03;;;1.48;;
23990;SDS011;12205;50.600;4.608;2023-07-31T03:43:13;7.05;;;1.30;;
23990;SDS011;12205;50.600;4.608;2023-07-31T03:45:40;8.00;;;1.40;;
23990;SDS011;12205;50.600;4.608;2023-07-31T03:48:07;5.32;;;1.08;;
23990;SDS011;12205;50.600;4.608;2023-07-31T03:50:34;6.13;;;1.13;;
23990;SDS011;12205;50.600;4.608;2023-07-31T03:53:01;8.85;;;1.00;;
23990;SDS011;12205;50.600;4.608;2023-07-31T03:55:28;5.72;;;1.10;;
23990;SDS011;12205;50.600;4.608;2023-07-31T03:57:55;7.13;;;1.27;;
23990;SDS011;12205;50.600;4.608;2023-07-31T04:00:24;11.77;;;1.75;;
23990;SDS011;12205;50.600;4.608;2023-07-31T04:02:52;6.57;;;1.20;;
23990;SDS011;12205;50.600;4.608;2023-07-31T04:05:19;5.35;;;1.15;;
23990;SDS011;12205;50.600;4.608;2023-07-31T04:07:46;4.55;;;1.10;;
23990;SDS011;12205;50.600;4.608;2023-07-31T04:10:13;9.95;;;1.40;;
23990;SDS011;12205;50.600;4.608;2023-07-31T04:12:40;6.85;;;1.05;;
23990;SDS011;12205;50.600;4.608;2023-07-31T04:15:08;6.00;;;1.20;;
23990;SDS011;12205;50.600;4.608;2023-07-31T04:17:37;9.02;;;1.23;;
23990;SDS011;12205;50.600;4.608;2023-07-31T04:20:04;7.60;;;1.23;;
23990;SDS011;12205;50.600;4.608;2023-07-31T04:22:33;7.95;;;1.30;;
23990;SDS011;12205;50.600;4.608;2023-07-31T04:25:00;8.63;;;1.20;;
23990;SDS011;12205;50.600;4.608;2023-07-31T04:27:27;11.25;;;1.77;;
23990;SDS011;12205;50.600;4.608;2023-07-31T04:29:54;6.50;;;1.30;;
23990;SDS011;12205;50.600;4.608;2023-07-31T04:32:21;5.85;;;1.33;;
23990;SDS011;12205;50.600;4.608;2023-07-31T04:34:49;6.85;;;1.25;;
23990;SDS011;12205;50.600;4.608;2023-07-31T04:37:16;9.88;;;1.27;;
23990;SDS011;12205;50.600;4.608;2023-07-31T04:39:43;7.22;;;1.35;;
23990;SDS011;12205;50.600;4.608;2023-07-31T04:42:11;4.03;;;1.17;;
23990;SDS011;12205;50.600;4.608;2023-07-31T04:44:38;5.50;;;1.23;;
23990;SDS011;12205;50.600;4.608;2023-07-31T04:47:06;9.65;;;1.60;;
23990;SDS011;12205;50.600;4.608;2023-07-31T04:49:33;5.28;;;1.30;;
23990;SDS011;12205;50.600;4.608;2023-07-31T04:52:01;9.15;;;1.13;;
23990;SDS011;12205;50.600;4.608;2023-07-31T04:54:29;6.45;;;1.30;;
23990;SDS011;12205;50.600;4.608;2023-07-31T04:56:56;5.10;;;0.93;;
23990;SDS011;12205;50.600;4.608;2023-07-31T04:59:23;5.45;;;1.17;;
23990;SDS011;12205;50.600;4.608;2023-07-31T05:01:50;9.05;;;1.30;;
23990;SDS011;12205;50.600;4.608;2023-07-31T05:04:17;10.05;;;1.67;;
23990;SDS011;12205;50.600;4.608;2023-07-31T05:06:44;9.52;;;1.50;;
23990;SDS011;12205;50.600;4.608;2023-07-31T05:09:13;8.10;;;1.23;;
23990;SDS011;12205;50.600;4.608;2023-07-31T05:11:40;9.20;;;1.48;;
23990;SDS011;12205;50.600;4.608;2023-07-31T05:14:08;8.07;;;1.23;;
23990;SDS011;12205;50.600;4.608;2023-07-31T05:16:35;9.68;;;1.10;;
23990;SDS011;12205;50.600;4.608;2023-07-31T05:19:02;9.10;;;1.27;;
23990;SDS011;12205;50.600;4.608;2023-07-31T05:21:29;5.32;;;1.00;;
23990;SDS011;12205;50.600;4.608;2023-07-31T05:23:56;11.27;;;1.60;;
23990;SDS011;12205;50.600;4.608;2023-07-31T05:26:25;7.25;;;1.38;;
23990;SDS011;12205;50.600;4.608;2023-07-31T05:28:52;7.88;;;1.17;;
23990;SDS011;12205;50.600;4.608;2023-07-31T05:31:19;9.10;;;1.27;;
23990;SDS011;12205;50.600;4.608;2023-07-31T05:33:47;9.13;;;1.40;;
23990;SDS011;12205;50.600;4.608;2023-07-31T05:36:15;6.20;;;1.33;;
23990;SDS011;12205;50.600;4.608;2023-07-31T05:38:43;10.02;;;1.25;;
23990;SDS011;12205;50.600;4.608;2023-07-31T05:41:10;10.02;;;1.38;;
23990;SDS011;12205;50.600;4.608;2023-07-31T05:43:39;3.72;;;1.02;;
23990;SDS011;12205;50.600;4.608;2023-07-31T05:46:08;9.95;;;1.42;;
23990;SDS011;12205;50.600;4.608;2023-07-31T05:48:37;6.47;;;1.40;;
23990;SDS011;12205;50.600;4.608;2023-07-31T05:51:04;6.75;;;1.20;;
23990;SDS011;12205;50.600;4.608;2023-07-31T05:53:32;6.07;;;1.20;;
23990;SDS011;12205;50.600;4.608;2023-07-31T05:55:59;6.45;;;1.05;;
23990;SDS011;12205;50.600;4.608;2023-07-31T05:58:27;9.20;;;1.73;;
23990;SDS011;12205;50.600;4.608;2023-07-31T06:00:55;7.93;;;1.05;;
23990;SDS011;12205;50.600;4.608;2023-07-31T06:03:22;6.25;;;1.23;;
23990;SDS011;12205;50.600;4.608;2023-07-31T06:05:49;9.73;;;1.30;;
23990;SDS011;12205;50.600;4.608;2023-07-31T06:08:16;7.97;;;1.20;;
23990;SDS011;12205;50.600;4.608;2023-07-31T06:10:43;9.32;;;1.27;;
23990;SDS011;12205;50.600;4.608;2023-07-31T06:13:10;8.40;;;1.35;;
23990;SDS011;12205;50.600;4.608;2023-07-31T06:15:37;11.15;;;1.10;;
23990;SDS011;12205;50.600;4.608;2023-07-31T06:18:06;7.95;;;1.15;;
23990;SDS011;12205;50.600;4.608;2023-07-31T06:20:33;10.35;;;1.45;;
23990;SDS011;12205;50.600;4.608;2023-07-31T06:23:00;6.93;;;1.10;;
23990;SDS011;12205;50.600;4.608;2023-07-31T06:25:28;6.95;;;1.30;;
23990;SDS011;12205;50.600;4.608;2023-07-31T06:27:55;7.30;;;1.08;;
23990;SDS011;12205;50.600;4.608;2023-07-31T06:30:23;8.10;;;1.30;;
23990;SDS011;12205;50.600;4.608;2023-07-31T06:32:50;6.78;;;0.90;;
23990;SDS011;12205;50.600;4.608;2023-07-31T06:35:18;4.53;;;1.00;;
23990;SDS011;12205;50.600;4.608;2023-07-31T06:37:45;7.78;;;1.25;;
23990;SDS011;12205;50.600;4.608;2023-07-31T06:40:12;6.18;;;1.10;;
23990;SDS011;12205;50.600;4.608;2023-07-31T06:42:40;4.18;;;1.05;;
23990;SDS011;12205;50.600;4.608;2023-07-31T06:45:07;6.30;;;1.20;;
23990;SDS011;12205;50.600;4.608;2023-07-31T06:47:35;7.85;;;1.08;;
23990;SDS011;12205;50.600;4.608;2023-07-31T06:50:02;5.25;;;1.00;;
23990;SDS011;12205;50.600;4.608;2023-07-31T06:52:32;5.80;;;0.90;;
23990;SDS011;12205;50.600;4.608;2023-07-31T06:55:02;8.73;;;1.10;;
23990;SDS011;12205;50.600;4.608;2023-07-31T06:57:30;4.70;;;0.98;;
23990;SDS011;12205;50.600;4.608;2023-07-31T06:59:58;6.95;;;0.90;;
23990;SDS011;12205;50.600;4.608;2023-07-31T07:02:25;4.38;;;0.98;;
23990;SDS011;12205;50.600;4.608;2023-07-31T07:04:52;4.88;;;0.95;;
23990;SDS011;12205;50.600;4.608;2023-07-31T07:07:19;5.95;;;1.10;;
23990;SDS011;12205;50.600;4.608;2023-07-31T07:09:47;5.95;;;1.10;;
23990;SDS011;12205;50.600;4.608;2023-07-31T07:12:15;8.73;;;1.10;;
23990;SDS011;12205;50.600;4.608;2023-07-31T07:14:42;7.70;;;1.15;;
23990;SDS011;12205;50.600;4.608;2023-07-31T07:17:11;6.45;;;1.02;;
23990;SDS011;12205;50.600;4.608;2023-07-31T07:19:39;9.40;;;1.27;;
23990;SDS011;12205;50.600;4.608;2023-07-31T07:22:07;6.65;;;1.10;;
23990;SDS011;12205;50.600;4.608;2023-07-31T07:24:34;7.70;;;1.52;;
23990;SDS011;12205;50.600;4.608;2023-07-31T07:27:02;5.05;;;1.10;;
23990;SDS011;12205;50.600;4.608;2023-07-31T07:29:30;5.45;;;0.80;;
23990;SDS011;12205;50.600;4.608;2023-07-31T07:31:57;7.03;;;1.08;;
23990;SDS011;12205;50.600;4.608;2023-07-31T07:34:25;5.38;;;1.23;;
23990;SDS011;12205;50.600;4.608;2023-07-31T07:36:54;7.63;;;1.20;;
23990;SDS011;12205;50.600;4.608;2023-07-31T07:39:21;10.90;;;1.52;;
23990;SDS011;12205;50.600;4.608;2023-07-31T07:41:48;4.70;;;1.08;;
23990;SDS011;12205;50.600;4.608;2023-07-31T07:44:17;6.15;;;0.98;;
23990;SDS011;12205;50.600;4.608;2023-07-31T07:46:44;5.65;;;0.90;;
23990;SDS011;12205;50.600;4.608;2023-07-31T07:49:11;5.05;;;0.90;;
23990;SDS011;12205;50.600;4.608;2023-07-31T07:51:38;8.20;;;1.30;;
23990;SDS011;12205;50.600;4.608;2023-07-31T07:54:05;7.47;;;1.40;;
23990;SDS011;12205;50.600;4.608;2023-07-31T07:56:32;7.20;;;1.10;;
23990;SDS011;12205;50.600;4.608;2023-07-31T07:59:01;8.77;;;1.38;;
23990;SDS011;12205;50.600;4.608;2023-07-31T08:01:29;5.13;;;1.20;;
23990;SDS011;12205;50.600;4.608;2023-07-31T08:03:57;5.25;;;1.10;;
23990;SDS011;12205;50.600;4.608;2023-07-31T08:06:25;4.75;;;1.17;;
23990;SDS011;12205;50.600;4.608;2023-07-31T08:08:52;7.78;;;1.33;;
23990;SDS011;12205;50.600;4.608;2023-07-31T08:11:19;4.45;;;1.15;;
23990;SDS011;12205;50.600;4.608;2023-07-31T08:13:47;6.80;;;1.20;;
23990;SDS011;12205;50.600;4.608;2023-07-31T08:16:14;5.40;;;1.08;;
23990;SDS011;12205;50.600;4.608;2023-07-31T08:18:42;8.35;;;1.38;;
23990;SDS011;12205;50.600;4.608;2023-07-31T08:21:09;8.07;;;1.30;;
23990;SDS011;12205;50.600;4.608;2023-07-31T08:23:36;6.80;;;1.10;;
23990;SDS011;12205;50.600;4.608;2023-07-31T08:26:03;6.18;;;1.05;;
23990;SDS011;12205;50.600;4.608;2023-07-31T08:28:31;5.35;;;0.93;;
23990;SDS011;12205;50.600;4.608;2023-07-31T08:30:58;6.03;;;0.98;;
23990;SDS011;12205;50.600;4.608;2023-07-31T08:33:25;4.53;;;0.90;;
23990;SDS011;12205;50.600;4.608;2023-07-31T08:35:53;5.13;;;0.95;;
23990;SDS011;12205;50.600;4.608;2023-07-31T08:38:20;5.05;;;1.08;;
23990;SDS011;12205;50.600;4.608;2023-07-31T08:40:50;11.00;;;1.30;;
23990;SDS011;12205;50.600;4.608;2023-07-31T08:43:19;3.50;;;0.73;;
23990;SDS011;12205;50.600;4.608;2023-07-31T08:45:49;5.30;;;0.90;;
23990;SDS011;12205;50.600;4.608;2023-07-31T08:48:17;4.63;;;0.90;;
23990;SDS011;12205;50.600;4.608;2023-07-31T08:50:45;4.22;;;0.70;;
23990;SDS011;12205;50.600;4.608;2023-07-31T08:53:14;3.15;;;0.93;;
23990;SDS011;12205;50.600;4.608;2023-07-31T08:55:41;3.35;;;0.80;;
23990;SDS011;12205;50.600;4.608;2023-07-31T08:58:10;2.80;;;0.65;;
23990;SDS011;12205;50.600;4.608;2023-07-31T09:00:40;3.72;;;0.70;;
23990;SDS011;12205;50.600;4.608;2023-07-31T09:03:12;2.78;;;0.60;;
23990;SDS011;12205;50.600;4.608;2023-07-31T09:05:42;3.08;;;0.68;;
23990;SDS011;12205;50.600;4.608;2023-07-31T09:08:11;5.68;;;0.90;;
23990;SDS011;12205;50.600;4.608;2023-07-31T09:10:44;6.43;;;0.95;;
23990;SDS011;12205;50.600;4.608;2023-07-31T09:13:12;2.00;;;0.63;;
23990;SDS011;12205;50.600;4.608;2023-07-31T09:15:40;4.63;;;1.05;;
23990;SDS011;12205;50.600;4.608;2023-07-31T09:18:11;5.78;;;1.17;;
23990;SDS011;12205;50.600;4.608;2023-07-31T09:20:42;7.17;;;1.27;;
23990;SDS011;12205;50.600;4.608;2023-07-31T09:23:10;4.65;;;1.00;;
23990;SDS011;12205;50.600;4.608;2023-07-31T09:25:40;6.55;;;1.17;;
23990;SDS011;12205;50.600;4.608;2023-07-31T09:28:10;8.18;;;1.30;;
23990;SDS011;12205;50.600;4.608;2023-07-31T09:30:45;6.18;;;1.20;;
23990;SDS011;12205;50.600;4.608;2023-07-31T09:33:14;7.63;;;1.17;;
23990;SDS011;12205;50.600;4.608;2023-07-31T09:35:41;6.45;;;1.50;;
23990;SDS011;12205;50.600;4.608;2023-07-31T09:38:10;9.48;;;1.60;;
23990;SDS011;12205;50.600;4.608;2023-07-31T09:40:40;9.55;;;1.85;;
23990;SDS011;12205;50.600;4.608;2023-07-31T09:43:09;9.63;;;1.40;;
23990;SDS011;12205;50.600;4.608;2023-07-31T09:45:38;6.75;;;1.30;;
23990;SDS011;12205;50.600;4.608;2023-07-31T09:48:08;8.85;;;1.92;;
23990;SDS011;12205;50.600;4.608;2023-07-31T09:50:38;5.85;;;1.25;;
23990;SDS011;12205;50.600;4.608;2023-07-31T09:53:08;5.73;;;1.07;;
23990;SDS011;12205;50.600;4.608;2023-07-31T09:55:36;9.57;;;1.60;;
23990;SDS011;12205;50.600;4.608;2023-07-31T09:58:06;10.52;;;1.88;;
23990;SDS011;12205;50.600;4.608;2023-07-31T10:00:35;8.43;;;1.70;;
23990;SDS011;12205;50.600;4.608;2023-07-31T10:03:04;8.38;;;1.38;;
23990;SDS011;12205;50.600;4.608;2023-07-31T10:05:34;7.53;;;1.80;;
23990;SDS011;12205;50.600;4.608;2023-07-31T10:08:03;8.52;;;1.50;;
23990;SDS011;12205;50.600;4.608;2023-07-31T10:10:32;8.02;;;1.30;;
23990;SDS011;12205;50.600;4.608;2023-07-31T10:13:02;7.95;;;1.33;;
23990;SDS011;12205;50.600;4.608;2023-07-31T10:15:32;7.03;;;1.40;;
23990;SDS011;12205;50.600;4.608;2023-07-31T10:18:02;13.68;;;1.77;;
23990;SDS011;12205;50.600;4.608;2023-07-31T10:20:32;9.27;;;1.43;;
23990;SDS011;12205;50.600;4.608;2023-07-31T10:23:01;7.70;;;1.45;;
23990;SDS011;12205;50.600;4.608;2023-07-31T10:25:29;9.43;;;1.70;;
23990;SDS011;12205;50.600;4.608;2023-07-31T10:27:59;8.00;;;1.55;;
23990;SDS011;12205;50.600;4.608;2023-07-31T10:30:28;6.15;;;1.45;;
23990;SDS011;12205;50.600;4.608;2023-07-31T10:32:59;15.38;;;2.15;;
23990;SDS011;12205;50.600;4.608;2023-07-31T10:35:28;7.57;;;1.70;;
23990;SDS011;12205;50.600;4.608;2023-07-31T10:37:56;11.50;;;1.85;;
23990;SDS011;12205;50.600;4.608;2023-07-31T10:40:36;8.83;;;1.80;;
23990;SDS011;12205;50.600;4.608;2023-07-31T10:43:04;9.48;;;1.65;;
23990;SDS011;12205;50.600;4.608;2023-07-31T10:45:35;7.30;;;1.40;;
23990;SDS011;12205;50.600;4.608;2023-07-31T10:48:04;7.00;;;1.43;;
23990;SDS011;12205;50.600;4.608;2023-07-31T10:50:36;13.35;;;2.15;;
23990;SDS011;12205;50.600;4.608;2023-07-31T10:53:05;7.50;;;1.38;;
23990;SDS011;12205;50.600;4.608;2023-07-31T10:55:33;7.55;;;1.52;;
23990;SDS011;12205;50.600;4.608;2023-07-31T10:58:08;8.20;;;1.50;;
23990;SDS011;12205;50.600;4.608;2023-07-31T11:00:38;6.07;;;1.48;;
23990;SDS011;12205;50.600;4.608;2023-07-31T11:03:08;7.88;;;1.48;;
23990;SDS011;12205;50.600;4.608;2023-07-31T11:05:40;7.13;;;1.60;;
23990;SDS011;12205;50.600;4.608;2023-07-31T11:08:28;7.53;;;1.30;;
23990;SDS011;12205;50.600;4.608;2023-07-31T11:11:07;7.38;;;1.30;;
23990;SDS011;12205;50.600;4.608;2023-07-31T11:13:40;8.32;;;1.60;;
23990;SDS011;12205;50.600;4.608;2023-07-31T11:16:11;7.22;;;1.75;;
23990;SDS011;12205;50.600;4.608;2023-07-31T11:18:40;8.88;;;1.33;;
23990;SDS011;12205;50.600;4.608;2023-07-31T11:21:07;7.18;;;1.75;;
23990;SDS011;12205;50.600;4.608;2023-07-31T11:23:38;10.88;;;1.50;;
23990;SDS011;12205;50.600;4.608;2023-07-31T11:26:06;11.32;;;1.77;;
23990;SDS011;12205;50.600;4.608;2023-07-31T11:28:34;8.18;;;1.50;;
23990;SDS011;12205;50.600;4.608;2023-07-31T11:31:02;7.25;;;1.30;;
23990;SDS011;12205;50.600;4.608;2023-07-31T11:33:31;9.57;;;2.13;;
23990;SDS011;12205;50.600;4.608;2023-07-31T11:35:58;7.47;;;1.50;;
23990;SDS011;12205;50.600;4.608;2023-07-31T11:38:25;8.30;;;1.48;;
23990;SDS011;12205;50.600;4.608;2023-07-31T11:40:55;9.13;;;1.35;;
23990;SDS011;12205;50.600;4.608;2023-07-31T11:43:23;9.13;;;1.48;;
23990;SDS011;12205;50.600;4.608;2023-07-31T11:45:52;9.60;;;1.77;;
23990;SDS011;12205;50.600;4.608;2023-07-31T11:48:21;10.70;;;1.67;;
23990;SDS011;12205;50.600;4.608;2023-07-31T11:50:53;9.68;;;1.50;;
23990;SDS011;12205;50.600;4.608;2023-07-31T11:53:25;6.88;;;1.35;;
23990;SDS011;12205;50.600;4.608;2023-07-31T11:55:57;10.32;;;1.52;;
23990;SDS011;12205;50.600;4.608;2023-07-31T11:58:25;7.50;;;1.67;;
23990;SDS011;12205;50.600;4.608;2023-07-31T12:00:53;6.43;;;1.40;;
23990;SDS011;12205;50.600;4.608;2023-07-31T12:03:22;9.93;;;1.70;;
23990;SDS011;12205;50.600;4.608;2023-07-31T12:05:49;10.45;;;1.80;;
23990;SDS011;12205;50.600;4.608;2023-07-31T12:08:18;11.20;;;1.73;;
23990;SDS011;12205;50.600;4.608;2023-07-31T12:10:49;9.75;;;1.70;;
23990;SDS011;12205;50.600;4.608;2023-07-31T12:13:19;10.38;;;1.70;;
23990;SDS011;12205;50.600;4.608;2023-07-31T12:15:48;10.75;;;2.00;;
23990;SDS011;12205;50.600;4.608;2023-07-31T12:18:21;8.52;;;1.60;;
23990;SDS011;12205;50.600;4.608;2023-07-31T12:20:49;10.93;;;1.83;;
23990;SDS011;12205;50.600;4.608;2023-07-31T12:23:24;8.52;;;1.70;;
23990;SDS011;12205;50.600;4.608;2023-07-31T12:26:00;9.02;;;2.22;;
23990;SDS011;12205;50.600;4.608;2023-07-31T12:28:29;7.97;;;1.70;;
23990;SDS011;12205;50.600;4.608;2023-07-31T12:33:30;8.65;;;1.65;;
23990;SDS011;12205;50.600;4.608;2023-07-31T12:36:00;11.93;;;1.63;;
23990;SDS011;12205;50.600;4.608;2023-07-31T12:38:30;9.65;;;1.90;;
23990;SDS011;12205;50.600;4.608;2023-07-31T12:40:57;8.38;;;1.83;;
23990;SDS011;12205;50.600;4.608;2023-07-31T12:43:24;8.60;;;1.70;;
23990;SDS011;12205;50.600;4.608;2023-07-31T12:45:53;9.27;;;2.10;;
23990;SDS011;12205;50.600;4.608;2023-07-31T12:48:21;9.82;;;1.90;;
23990;SDS011;12205;50.600;4.608;2023-07-31T12:50:48;10.38;;;1.95;;
23990;SDS011;12205;50.600;4.608;2023-07-31T12:53:15;9.77;;;1.90;;
23990;SDS011;12205;50.600;4.608;2023-07-31T12:55:44;9.73;;;1.75;;
23990;SDS011;12205;50.600;4.608;2023-07-31T12:58:11;14.10;;;2.08;;
23990;SDS011;12205;50.600;4.608;2023-07-31T13:00:38;6.30;;;1.50;;
23990;SDS011;12205;50.600;4.608;2023-07-31T13:03:05;10.20;;;1.73;;
23990;SDS011;12205;50.600;4.608;2023-07-31T13:05:32;7.10;;;1.63;;
23990;SDS011;12205;50.600;4.608;2023-07-31T13:07:59;9.15;;;1.63;;
23990;SDS011;12205;50.600;4.608;2023-07-31T13:10:27;5.95;;;1.50;;
23990;SDS011;12205;50.600;4.608;2023-07-31T13:12:56;10.20;;;1.80;;
23990;SDS011;12205;50.600;4.608;2023-07-31T13:15:23;10.15;;;1.70;;
23990;SDS011;12205;50.600;4.608;2023-07-31T13:17:50;8.35;;;1.70;;
23990;SDS011;12205;50.600;4.608;2023-07-31T13:20:17;10.70;;;1.80;;
23990;SDS011;12205;50.600;4.608;2023-07-31T13:22:44;6.53;;;1.30;;
23990;SDS011;12205;50.600;4.608;2023-07-31T13:25:11;8.82;;;1.23;;
23990;SDS011;12205;50.600;4.608;2023-07-31T13:27:39;6.28;;;1.15;;
23990;SDS011;12205;50.600;4.608;2023-07-31T13:30:08;5.22;;;1.25;;
23990;SDS011;12205;50.600;4.608;2023-07-31T13:32:35;3.83;;;0.82;;
23990;SDS011;12205;50.600;4.608;2023-07-31T13:35:04;4.65;;;0.90;;
23990;SDS011;12205;50.600;4.608;2023-07-31T13:37:32;3.60;;;0.80;;
23990;SDS011;12205;50.600;4.608;2023-07-31T13:39:59;8.27;;;0.95;;
23990;SDS011;12205;50.600;4.608;2023-07-31T13:42:26;7.68;;;1.17;;
23990;SDS011;12205;50.600;4.608;2023-07-31T13:44:53;4.20;;;0.70;;
23990;SDS011;12205;50.600;4.608;2023-07-31T13:47:23;4.70;;;0.93;;
23990;SDS011;12205;50.600;4.608;2023-07-31T13:49:50;8.20;;;0.82;;
23990;SDS011;12205;50.600;4.608;2023-07-31T13:52:17;8.13;;;1.02;;
23990;SDS011;12205;50.600;4.608;2023-07-31T13:54:44;3.92;;;0.85;;
23990;SDS011;12205;50.600;4.608;2023-07-31T13:57:11;4.32;;;0.80;;
23990;SDS011;12205;50.600;4.608;2023-07-31T13:59:38;3.67;;;0.90;;
23990;SDS011;12205;50.600;4.608;2023-07-31T14:02:05;6.80;;;1.00;;
23990;SDS011;12205;50.600;4.608;2023-07-31T14:04:34;4.72;;;0.98;;
23990;SDS011;12205;50.600;4.608;2023-07-31T14:07:01;5.57;;;0.85;;
23990;SDS011;12205;50.600;4.608;2023-07-31T14:09:29;5.50;;;0.90;;
23990;SDS011;12205;50.600;4.608;2023-07-31T14:11:56;6.13;;;0.98;;
23990;SDS011;12205;50.600;4.608;2023-07-31T14:14:23;3.55;;;0.77;;
23990;SDS011;12205;50.600;4.608;2023-07-31T14:16:50;5.22;;;0.90;;
23990;SDS011;12205;50.600;4.608;2023-07-31T14:19:17;5.88;;;0.90;;
23990;SDS011;12205;50.600;4.608;2023-07-31T14:21:46;6.25;;;1.10;;
23990;SDS011;12205;50.600;4.608;2023-07-31T14:24:13;5.57;;;0.90;;
23990;SDS011;12205;50.600;4.608;2023-07-31T14:26:40;7.07;;;1.00;;
23990;SDS011;12205;50.600;4.608;2023-07-31T14:29:07;4.30;;;0.85;;
23990;SDS011;12205;50.600;4.608;2023-07-31T14:31:35;2.47;;;0.75;;
23990;SDS011;12205;50.600;4.608;2023-07-31T14:34:02;4.43;;;0.75;;
23990;SDS011;12205;50.600;4.608;2023-07-31T14:36:29;3.78;;;0.77;;
23990;SDS011;12205;50.600;4.608;2023-07-31T14:38:58;4.57;;;1.02;;
23990;SDS011;12205;50.600;4.608;2023-07-31T14:41:25;2.78;;;0.75;;
23990;SDS011;12205;50.600;4.608;2023-07-31T14:43:54;1.95;;;0.73;;
23990;SDS011;12205;50.600;4.608;2023-07-31T14:46:21;3.40;;;0.85;;
23990;SDS011;12205;50.600;4.608;2023-07-31T14:48:48;4.50;;;0.90;;
23990;SDS011;12205;50.600;4.608;2023-07-31T14:51:15;2.80;;;0.60;;
23990;SDS011;12205;50.600;4.608;2023-07-31T14:53:42;2.97;;;0.70;;